sensor_id;sensor_type;location;lat;lon;timestamp;P1;durP1;ratioP1;P2;durP2;ratioP2
10389;SDS011;5241;47.830;12.972;2022-08-19T00:00:16;7.63;;;6.90;;
10389;SDS011;5241;47.830;12.972;2022-08-19T00:02:42;9.13;;;6.90;;
10389;SDS011;5241;47.830;12.972;2022-08-19T00:05:09;7.53;;;6.63;;
10389;SDS011;5241;47.830;12.972;2022-08-19T00:07:35;7.30;;;6.53;;
10389;SDS011;5241;47.830;12.972;2022-08-19T00:10:02;7.67;;;6.80;;
10389;SDS011;5241;47.830;12.972;2022-08-19T00:12:29;7.90;;;7.20;;
10389;SDS011;5241;47.830;12.972;2022-08-19T00:14:55;8.57;;;7.73;;
10389;SDS011;5241;47.830;12.972;2022-08-19T00:17:20;8.03;;;7.33;;
10389;SDS011;5241;47.830;12.972;2022-08-19T00:19:46;7.47;;;6.70;;
10389;SDS011;5241;47.830;12.972;2022-08-19T00:22:12;7.77;;;6.87;;
10389;SDS011;5241;47.830;12.972;2022-08-19T00:24:37;6.90;;;6.20;;
10389;SDS011;5241;47.830;12.972;2022-08-19T00:27:03;6.90;;;6.20;;
10389;SDS011;5241;47.830;12.972;2022-08-19T00:29:29;8.63;;;7.43;;
10389;SDS011;5241;47.830;12.972;2022-08-19T00:31:56;7.77;;;7.03;;
10389;SDS011;5241;47.830;12.972;2022-08-19T00:34:23;7.80;;;7.10;;
10389;SDS011;5241;47.830;12.972;2022-08-19T00:36:53;9.10;;;6.57;;
10389;SDS011;5241;47.830;12.972;2022-08-19T00:39:20;8.23;;;7.30;;
10389;SDS011;5241;47.830;12.972;2022-08-19T00:41:46;7.17;;;6.57;;
10389;SDS011;5241;47.830;12.972;2022-08-19T00:44:15;8.07;;;7.37;;
10389;SDS011;5241;47.830;12.972;2022-08-19T00:46:47;8.00;;;7.13;;
10389;SDS011;5241;47.830;12.972;2022-08-19T00:49:24;7.90;;;6.33;;
10389;SDS011;5241;47.830;12.972;2022-08-19T00:52:06;8.03;;;7.30;;
10389;SDS011;5241;47.830;12.972;2022-08-19T00:54:34;7.80;;;7.03;;
10389;SDS011;5241;47.830;12.972;2022-08-19T00:57:02;8.40;;;7.07;;
10389;SDS011;5241;47.830;12.972;2022-08-19T00:59:32;7.67;;;6.97;;
10389;SDS011;5241;47.830;12.972;2022-08-19T01:02:02;8.70;;;6.97;;
10389;SDS011;5241;47.830;12.972;2022-08-19T01:04:28;8.70;;;7.70;;
10389;SDS011;5241;47.830;12.972;2022-08-19T01:06:54;9.60;;;8.53;;
10389;SDS011;5241;47.830;12.972;2022-08-19T01:09:21;8.93;;;7.90;;
10389;SDS011;5241;47.830;12.972;2022-08-19T01:11:46;8.57;;;7.73;;
10389;SDS011;5241;47.830;12.972;2022-08-19T01:14:12;8.93;;;8.03;;
10389;SDS011;5241;47.830;12.972;2022-08-19T01:16:38;8.20;;;7.47;;
10389;SDS011;5241;47.830;12.972;2022-08-19T01:19:10;8.83;;;7.93;;
10389;SDS011;5241;47.830;12.972;2022-08-19T01:21:55;8.33;;;7.63;;
10389;SDS011;5241;47.830;12.972;2022-08-19T01:24:26;10.00;;;7.50;;
10389;SDS011;5241;47.830;12.972;2022-08-19T01:26:52;9.33;;;8.20;;
10389;SDS011;5241;47.830;12.972;2022-08-19T01:29:17;8.43;;;7.50;;
10389;SDS011;5241;47.830;12.972;2022-08-19T01:31:43;8.90;;;7.93;;
10389;SDS011;5241;47.830;12.972;2022-08-19T01:34:09;9.37;;;7.77;;
10389;SDS011;5241;47.830;12.972;2022-08-19T01:36:37;11.73;;;8.07;;
10389;SDS011;5241;47.830;12.972;2022-08-19T01:39:11;8.97;;;8.00;;
10389;SDS011;5241;47.830;12.972;2022-08-19T01:41:40;9.80;;;8.33;;
10389;SDS011;5241;47.830;12.972;2022-08-19T01:44:06;9.50;;;8.60;;
10389;SDS011;5241;47.830;12.972;2022-08-19T01:46:33;8.10;;;7.40;;
10389;SDS011;5241;47.830;12.972;2022-08-19T01:48:58;7.87;;;7.07;;
10389;SDS011;5241;47.830;12.972;2022-08-19T01:51:25;8.33;;;7.60;;
10389;SDS011;5241;47.830;12.972;2022-08-19T01:53:51;8.90;;;8.00;;
10389;SDS011;5241;47.830;12.972;2022-08-19T01:56:17;9.33;;;7.60;;
10389;SDS011;5241;47.830;12.972;2022-08-19T01:58:48;9.10;;;8.20;;
10389;SDS011;5241;47.830;12.972;2022-08-19T02:01:18;9.30;;;7.70;;
10389;SDS011;5241;47.830;12.972;2022-08-19T02:03:43;8.27;;;7.47;;
10389;SDS011;5241;47.830;12.972;2022-08-19T02:06:10;9.73;;;8.83;;
10389;SDS011;5241;47.830;12.972;2022-08-19T02:08:36;10.17;;;8.57;;
10389;SDS011;5241;47.830;12.972;2022-08-19T02:11:03;10.07;;;8.17;;
10389;SDS011;5241;47.830;12.972;2022-08-19T02:13:30;11.23;;;8.03;;
10389;SDS011;5241;47.830;12.972;2022-08-19T02:15:56;11.77;;;7.97;;
10389;SDS011;5241;47.830;12.972;2022-08-19T02:18:23;8.00;;;7.30;;
10389;SDS011;5241;47.830;12.972;2022-08-19T02:20:48;8.47;;;7.67;;
10389;SDS011;5241;47.830;12.972;2022-08-19T02:23:14;9.67;;;7.73;;
10389;SDS011;5241;47.830;12.972;2022-08-19T02:25:42;8.60;;;7.43;;
10389;SDS011;5241;47.830;12.972;2022-08-19T02:28:09;9.17;;;7.33;;
10389;SDS011;5241;47.830;12.972;2022-08-19T02:30:36;10.07;;;7.33;;
10389;SDS011;5241;47.830;12.972;2022-08-19T02:33:03;9.00;;;7.97;;
10389;SDS011;5241;47.830;12.972;2022-08-19T02:35:29;9.30;;;7.53;;
10389;SDS011;5241;47.830;12.972;2022-08-19T02:37:55;8.00;;;7.27;;
10389;SDS011;5241;47.830;12.972;2022-08-19T02:40:39;8.93;;;8.10;;
10389;SDS011;5241;47.830;12.972;2022-08-19T02:43:06;8.40;;;7.57;;
10389;SDS011;5241;47.830;12.972;2022-08-19T02:45:37;10.97;;;7.63;;
10389;SDS011;5241;47.830;12.972;2022-08-19T02:48:07;8.23;;;7.43;;
10389;SDS011;5241;47.830;12.972;2022-08-19T02:50:33;8.50;;;7.63;;
10389;SDS011;5241;47.830;12.972;2022-08-19T02:53:05;8.47;;;7.60;;
10389;SDS011;5241;47.830;12.972;2022-08-19T02:55:32;9.50;;;8.37;;
10389;SDS011;5241;47.830;12.972;2022-08-19T02:57:57;9.47;;;8.43;;
10389;SDS011;5241;47.830;12.972;2022-08-19T03:00:24;9.50;;;8.60;;
10389;SDS011;5241;47.830;12.972;2022-08-19T03:02:51;8.90;;;8.00;;
10389;SDS011;5241;47.830;12.972;2022-08-19T03:05:17;9.20;;;8.30;;
10389;SDS011;5241;47.830;12.972;2022-08-19T03:07:42;8.90;;;8.10;;
10389;SDS011;5241;47.830;12.972;2022-08-19T03:10:08;8.07;;;7.37;;
10389;SDS011;5241;47.830;12.972;2022-08-19T03:12:35;9.77;;;8.10;;
10389;SDS011;5241;47.830;12.972;2022-08-19T03:15:02;9.43;;;8.43;;
10389;SDS011;5241;47.830;12.972;2022-08-19T03:17:28;8.70;;;7.80;;
10389;SDS011;5241;47.830;12.972;2022-08-19T03:19:54;8.80;;;8.00;;
10389;SDS011;5241;47.830;12.972;2022-08-19T03:22:19;8.23;;;7.43;;
10389;SDS011;5241;47.830;12.972;2022-08-19T03:24:45;8.90;;;8.10;;
10389;SDS011;5241;47.830;12.972;2022-08-19T03:27:10;7.63;;;6.83;;
10389;SDS011;5241;47.830;12.972;2022-08-19T03:29:37;7.80;;;7.10;;
10389;SDS011;5241;47.830;12.972;2022-08-19T03:32:04;8.40;;;7.67;;
10389;SDS011;5241;47.830;12.972;2022-08-19T03:34:31;7.20;;;6.57;;
10389;SDS011;5241;47.830;12.972;2022-08-19T03:37:02;7.80;;;7.10;;
10389;SDS011;5241;47.830;12.972;2022-08-19T03:39:29;9.97;;;7.50;;
10389;SDS011;5241;47.830;12.972;2022-08-19T03:41:55;8.57;;;7.40;;
10389;SDS011;5241;47.830;12.972;2022-08-19T03:44:23;8.10;;;7.30;;
10389;SDS011;5241;47.830;12.972;2022-08-19T03:46:55;7.83;;;6.67;;
10389;SDS011;5241;47.830;12.972;2022-08-19T03:49:23;9.17;;;7.33;;
10389;SDS011;5241;47.830;12.972;2022-08-19T03:51:52;8.60;;;7.67;;
10389;SDS011;5241;47.830;12.972;2022-08-19T03:54:19;7.70;;;6.97;;
10389;SDS011;5241;47.830;12.972;2022-08-19T03:56:48;7.60;;;6.90;;
10389;SDS011;5241;47.830;12.972;2022-08-19T03:59:19;9.67;;;8.73;;
10389;SDS011;5241;47.830;12.972;2022-08-19T04:01:51;9.17;;;8.27;;
10389;SDS011;5241;47.830;12.972;2022-08-19T04:04:21;9.37;;;8.37;;
10389;SDS011;5241;47.830;12.972;2022-08-19T04:06:47;10.70;;;9.60;;
10389;SDS011;5241;47.830;12.972;2022-08-19T04:09:13;10.73;;;9.70;;
10389;SDS011;5241;47.830;12.972;2022-08-19T04:11:41;10.77;;;9.77;;
10389;SDS011;5241;47.830;12.972;2022-08-19T04:14:10;11.17;;;10.13;;
10389;SDS011;5241;47.830;12.972;2022-08-19T04:16:37;11.50;;;10.33;;
10389;SDS011;5241;47.830;12.972;2022-08-19T04:19:03;11.63;;;10.37;;
10389;SDS011;5241;47.830;12.972;2022-08-19T04:21:30;11.83;;;10.73;;
10389;SDS011;5241;47.830;12.972;2022-08-19T04:23:56;12.50;;;11.20;;
10389;SDS011;5241;47.830;12.972;2022-08-19T04:26:24;12.87;;;11.67;;
10389;SDS011;5241;47.830;12.972;2022-08-19T04:28:51;14.20;;;11.67;;
10389;SDS011;5241;47.830;12.972;2022-08-19T04:31:19;13.90;;;12.60;;
10389;SDS011;5241;47.830;12.972;2022-08-19T04:33:47;14.40;;;13.03;;
10389;SDS011;5241;47.830;12.972;2022-08-19T04:36:46;14.33;;;12.87;;
10389;SDS011;5241;47.830;12.972;2022-08-19T04:39:07;15.67;;;13.33;;
10389;SDS011;5241;47.830;12.972;2022-08-19T04:41:35;14.70;;;13.20;;
10389;SDS011;5241;47.830;12.972;2022-08-19T04:44:20;15.17;;;13.53;;
10389;SDS011;5241;47.830;12.972;2022-08-19T04:46:46;14.17;;;12.13;;
10389;SDS011;5241;47.830;12.972;2022-08-19T04:49:13;14.43;;;12.97;;
10389;SDS011;5241;47.830;12.972;2022-08-19T04:51:40;15.67;;;14.07;;
10389;SDS011;5241;47.830;12.972;2022-08-19T04:54:08;16.03;;;14.43;;
10389;SDS011;5241;47.830;12.972;2022-08-19T04:56:34;16.97;;;15.13;;
10389;SDS011;5241;47.830;12.972;2022-08-19T04:58:59;16.97;;;15.17;;
10389;SDS011;5241;47.830;12.972;2022-08-19T05:01:29;14.97;;;13.57;;
10389;SDS011;5241;47.830;12.972;2022-08-19T05:03:58;15.97;;;14.37;;
10389;SDS011;5241;47.830;12.972;2022-08-19T05:06:25;15.93;;;14.40;;
10389;SDS011;5241;47.830;12.972;2022-08-19T05:08:53;15.90;;;13.63;;
10389;SDS011;5241;47.830;12.972;2022-08-19T05:11:21;15.57;;;13.87;;
10389;SDS011;5241;47.830;12.972;2022-08-19T05:13:50;16.60;;;14.90;;
10389;SDS011;5241;47.830;12.972;2022-08-19T05:16:17;16.00;;;14.27;;
10389;SDS011;5241;47.830;12.972;2022-08-19T05:18:44;14.77;;;13.27;;
10389;SDS011;5241;47.830;12.972;2022-08-19T05:21:48;14.57;;;12.53;;
10389;SDS011;5241;47.830;12.972;2022-08-19T05:24:32;16.03;;;12.63;;
10389;SDS011;5241;47.830;12.972;2022-08-19T05:26:59;14.10;;;12.67;;
10389;SDS011;5241;47.830;12.972;2022-08-19T05:29:27;14.47;;;12.30;;
10389;SDS011;5241;47.830;12.972;2022-08-19T05:31:54;14.20;;;11.07;;
10389;SDS011;5241;47.830;12.972;2022-08-19T05:34:20;13.17;;;11.93;;
10389;SDS011;5241;47.830;12.972;2022-08-19T05:36:49;13.27;;;11.90;;
10389;SDS011;5241;47.830;12.972;2022-08-19T05:39:17;12.57;;;11.27;;
10389;SDS011;5241;47.830;12.972;2022-08-19T05:41:45;13.03;;;11.40;;
10389;SDS011;5241;47.830;12.972;2022-08-19T05:44:16;13.10;;;11.90;;
10389;SDS011;5241;47.830;12.972;2022-08-19T05:46:44;13.00;;;11.80;;
10389;SDS011;5241;47.830;12.972;2022-08-19T05:49:13;13.40;;;12.10;;
10389;SDS011;5241;47.830;12.972;2022-08-19T05:51:40;14.53;;;12.70;;
10389;SDS011;5241;47.830;12.972;2022-08-19T05:54:07;13.23;;;11.93;;
10389;SDS011;5241;47.830;12.972;2022-08-19T05:56:34;14.47;;;13.07;;
10389;SDS011;5241;47.830;12.972;2022-08-19T05:59:03;13.23;;;11.93;;
10389;SDS011;5241;47.830;12.972;2022-08-19T06:01:33;14.87;;;13.47;;
10389;SDS011;5241;47.830;12.972;2022-08-19T06:03:59;12.00;;;10.90;;
10389;SDS011;5241;47.830;12.972;2022-08-19T06:06:25;12.57;;;11.37;;
10389;SDS011;5241;47.830;12.972;2022-08-19T06:08:50;12.67;;;11.47;;
10389;SDS011;5241;47.830;12.972;2022-08-19T06:11:17;12.37;;;11.10;;
10389;SDS011;5241;47.830;12.972;2022-08-19T06:13:46;12.43;;;10.83;;
10389;SDS011;5241;47.830;12.972;2022-08-19T06:16:15;13.10;;;11.90;;
10389;SDS011;5241;47.830;12.972;2022-08-19T06:18:47;12.73;;;11.57;;
10389;SDS011;5241;47.830;12.972;2022-08-19T06:21:16;13.68;;;12.38;;
10389;SDS011;5241;47.830;12.972;2022-08-19T06:23:42;12.57;;;11.47;;
10389;SDS011;5241;47.830;12.972;2022-08-19T06:26:11;12.43;;;11.13;;
10389;SDS011;5241;47.830;12.972;2022-08-19T06:28:37;11.30;;;10.27;;
10389;SDS011;5241;47.830;12.972;2022-08-19T06:31:12;11.00;;;10.00;;
10389;SDS011;5241;47.830;12.972;2022-08-19T06:33:39;11.30;;;10.10;;
10389;SDS011;5241;47.830;12.972;2022-08-19T06:36:06;11.37;;;10.27;;
10389;SDS011;5241;47.830;12.972;2022-08-19T06:38:32;13.67;;;11.40;;
10389;SDS011;5241;47.830;12.972;2022-08-19T06:41:03;12.13;;;10.83;;
10389;SDS011;5241;47.830;12.972;2022-08-19T06:43:30;11.90;;;10.70;;
10389;SDS011;5241;47.830;12.972;2022-08-19T06:45:55;12.30;;;11.10;;
10389;SDS011;5241;47.830;12.972;2022-08-19T06:48:22;13.93;;;12.53;;
10389;SDS011;5241;47.830;12.972;2022-08-19T06:50:47;14.17;;;12.80;;
10389;SDS011;5241;47.830;12.972;2022-08-19T06:53:15;14.77;;;13.37;;
10389;SDS011;5241;47.830;12.972;2022-08-19T06:55:40;13.27;;;12.03;;
10389;SDS011;5241;47.830;12.972;2022-08-19T06:58:06;14.67;;;13.17;;
10389;SDS011;5241;47.830;12.972;2022-08-19T07:00:32;14.57;;;13.03;;
10389;SDS011;5241;47.830;12.972;2022-08-19T07:02:57;16.83;;;15.03;;
10389;SDS011;5241;47.830;12.972;2022-08-19T07:05:24;16.87;;;13.63;;
10389;SDS011;5241;47.830;12.972;2022-08-19T07:07:50;16.00;;;14.40;;
10389;SDS011;5241;47.830;12.972;2022-08-19T07:10:15;17.33;;;15.63;;
10389;SDS011;5241;47.830;12.972;2022-08-19T07:12:41;18.80;;;14.70;;
10389;SDS011;5241;47.830;12.972;2022-08-19T07:15:06;16.80;;;15.20;;
10389;SDS011;5241;47.830;12.972;2022-08-19T07:17:35;17.57;;;15.77;;
10389;SDS011;5241;47.830;12.972;2022-08-19T07:20:03;18.03;;;15.33;;
10389;SDS011;5241;47.830;12.972;2022-08-19T07:22:31;15.77;;;14.37;;
10389;SDS011;5241;47.830;12.972;2022-08-19T07:25:01;14.93;;;13.60;;
10389;SDS011;5241;47.830;12.972;2022-08-19T07:27:28;14.93;;;13.40;;
10389;SDS011;5241;47.830;12.972;2022-08-19T07:29:54;16.33;;;14.63;;
10389;SDS011;5241;47.830;12.972;2022-08-19T07:32:20;15.40;;;13.27;;
10389;SDS011;5241;47.830;12.972;2022-08-19T07:34:45;13.37;;;12.00;;
10389;SDS011;5241;47.830;12.972;2022-08-19T07:37:11;12.60;;;11.33;;
10389;SDS011;5241;47.830;12.972;2022-08-19T07:39:37;11.43;;;10.43;;
10389;SDS011;5241;47.830;12.972;2022-08-19T07:42:05;10.20;;;9.30;;
10389;SDS011;5241;47.830;12.972;2022-08-19T07:44:34;7.77;;;7.07;;
10389;SDS011;5241;47.830;12.972;2022-08-19T07:47:00;7.10;;;6.47;;
10389;SDS011;5241;47.830;12.972;2022-08-19T07:49:26;7.73;;;7.03;;
10389;SDS011;5241;47.830;12.972;2022-08-19T07:51:54;7.93;;;7.13;;
10389;SDS011;5241;47.830;12.972;2022-08-19T07:54:22;6.20;;;5.70;;
10389;SDS011;5241;47.830;12.972;2022-08-19T07:56:49;5.87;;;5.37;;
10389;SDS011;5241;47.830;12.972;2022-08-19T07:59:15;5.27;;;4.87;;
10389;SDS011;5241;47.830;12.972;2022-08-19T08:01:42;5.83;;;5.33;;
10389;SDS011;5241;47.830;12.972;2022-08-19T08:04:09;5.07;;;4.67;;
10389;SDS011;5241;47.830;12.972;2022-08-19T08:06:53;5.10;;;4.70;;
10389;SDS011;5241;47.830;12.972;2022-08-19T08:09:39;5.10;;;4.60;;
10389;SDS011;5241;47.830;12.972;2022-08-19T08:12:11;4.97;;;4.57;;
10389;SDS011;5241;47.830;12.972;2022-08-19T08:14:43;4.77;;;4.37;;
10389;SDS011;5241;47.830;12.972;2022-08-19T08:17:12;4.93;;;4.50;;
10389;SDS011;5241;47.830;12.972;2022-08-19T08:19:39;5.37;;;4.87;;
10389;SDS011;5241;47.830;12.972;2022-08-19T08:22:08;4.73;;;4.33;;
10389;SDS011;5241;47.830;12.972;2022-08-19T08:24:55;4.80;;;4.40;;
10389;SDS011;5241;47.830;12.972;2022-08-19T08:27:23;5.10;;;4.70;;
10389;SDS011;5241;47.830;12.972;2022-08-19T08:29:49;4.73;;;4.30;;
10389;SDS011;5241;47.830;12.972;2022-08-19T08:32:15;4.23;;;3.93;;
10389;SDS011;5241;47.830;12.972;2022-08-19T08:34:41;4.43;;;4.07;;
10389;SDS011;5241;47.830;12.972;2022-08-19T08:37:07;5.00;;;4.60;;
10389;SDS011;5241;47.830;12.972;2022-08-19T08:39:33;4.50;;;4.03;;
10389;SDS011;5241;47.830;12.972;2022-08-19T08:44:47;4.57;;;4.27;;
10389;SDS011;5241;47.830;12.972;2022-08-19T08:47:17;4.53;;;4.20;;
10389;SDS011;5241;47.830;12.972;2022-08-19T08:52:31;5.17;;;4.50;;
10389;SDS011;5241;47.830;12.972;2022-08-19T08:55:12;4.60;;;4.30;;
10389;SDS011;5241;47.830;12.972;2022-08-19T09:00:22;5.73;;;5.27;;
10389;SDS011;5241;47.830;12.972;2022-08-19T09:02:51;5.30;;;4.90;;
10389;SDS011;5241;47.830;12.972;2022-08-19T09:05:19;6.00;;;5.50;;
10389;SDS011;5241;47.830;12.972;2022-08-19T09:07:50;5.27;;;4.87;;
10389;SDS011;5241;47.830;12.972;2022-08-19T09:15:28;5.80;;;5.30;;
10389;SDS011;5241;47.830;12.972;2022-08-19T09:18:00;5.50;;;5.10;;
10389;SDS011;5241;47.830;12.972;2022-08-19T09:20:28;6.50;;;5.87;;
10389;SDS011;5241;47.830;12.972;2022-08-19T09:22:56;5.97;;;5.47;;
10389;SDS011;5241;47.830;12.972;2022-08-19T09:25:22;6.17;;;5.63;;
10389;SDS011;5241;47.830;12.972;2022-08-19T09:27:48;6.00;;;5.50;;
10389;SDS011;5241;47.830;12.972;2022-08-19T09:30:17;6.73;;;6.20;;
10389;SDS011;5241;47.830;12.972;2022-08-19T09:32:47;6.63;;;6.03;;
10389;SDS011;5241;47.830;12.972;2022-08-19T09:35:13;6.23;;;5.47;;
10389;SDS011;5241;47.830;12.972;2022-08-19T09:37:39;6.17;;;5.57;;
10389;SDS011;5241;47.830;12.972;2022-08-19T09:40:08;5.83;;;5.33;;
10389;SDS011;5241;47.830;12.972;2022-08-19T09:42:34;6.33;;;5.83;;
10389;SDS011;5241;47.830;12.972;2022-08-19T09:44:59;6.73;;;6.13;;
10389;SDS011;5241;47.830;12.972;2022-08-19T09:47:25;6.17;;;5.47;;
10389;SDS011;5241;47.830;12.972;2022-08-19T09:49:51;6.07;;;5.57;;
10389;SDS011;5241;47.830;12.972;2022-08-19T09:52:16;5.77;;;5.27;;
10389;SDS011;5241;47.830;12.972;2022-08-19T09:54:42;5.73;;;5.23;;
10389;SDS011;5241;47.830;12.972;2022-08-19T09:57:08;6.10;;;5.60;;
10389;SDS011;5241;47.830;12.972;2022-08-19T09:59:34;6.07;;;5.57;;
10389;SDS011;5241;47.830;12.972;2022-08-19T10:01:59;6.20;;;5.63;;
10389;SDS011;5241;47.830;12.972;2022-08-19T10:04:25;6.00;;;5.50;;
10389;SDS011;5241;47.830;12.972;2022-08-19T10:07:09;6.30;;;5.80;;
10389;SDS011;5241;47.830;12.972;2022-08-19T10:09:35;6.00;;;5.60;;
10389;SDS011;5241;47.830;12.972;2022-08-19T10:12:01;7.37;;;6.77;;
10389;SDS011;5241;47.830;12.972;2022-08-19T10:14:29;6.87;;;6.30;;
10389;SDS011;5241;47.830;12.972;2022-08-19T10:16:55;7.10;;;6.43;;
10389;SDS011;5241;47.830;12.972;2022-08-19T10:19:21;6.70;;;6.10;;
10389;SDS011;5241;47.830;12.972;2022-08-19T10:21:47;6.80;;;6.20;;
10389;SDS011;5241;47.830;12.972;2022-08-19T10:24:12;6.93;;;6.33;;
10389;SDS011;5241;47.830;12.972;2022-08-19T10:26:39;6.63;;;6.03;;
10389;SDS011;5241;47.830;12.972;2022-08-19T10:29:09;7.37;;;6.70;;
10389;SDS011;5241;47.830;12.972;2022-08-19T10:31:36;6.60;;;6.10;;
10389;SDS011;5241;47.830;12.972;2022-08-19T10:34:02;8.00;;;7.30;;
10389;SDS011;5241;47.830;12.972;2022-08-19T10:36:29;9.20;;;8.40;;
10389;SDS011;5241;47.830;12.972;2022-08-19T10:38:57;7.40;;;6.80;;
10389;SDS011;5241;47.830;12.972;2022-08-19T10:41:27;7.50;;;6.90;;
10389;SDS011;5241;47.830;12.972;2022-08-19T10:43:56;7.60;;;6.90;;
10389;SDS011;5241;47.830;12.972;2022-08-19T10:46:23;7.60;;;6.90;;
10389;SDS011;5241;47.830;12.972;2022-08-19T10:48:50;7.47;;;6.77;;
10389;SDS011;5241;47.830;12.972;2022-08-19T10:51:16;6.27;;;5.63;;
10389;SDS011;5241;47.830;12.972;2022-08-19T10:54:01;6.00;;;5.50;;
10389;SDS011;5241;47.830;12.972;2022-08-19T10:56:28;6.77;;;6.17;;
10389;SDS011;5241;47.830;12.972;2022-08-19T10:59:14;6.90;;;6.30;;
10389;SDS011;5241;47.830;12.972;2022-08-19T11:01:41;6.47;;;5.97;;
10389;SDS011;5241;47.830;12.972;2022-08-19T11:04:07;6.50;;;6.00;;
10389;SDS011;5241;47.830;12.972;2022-08-19T11:06:38;6.53;;;6.03;;
10389;SDS011;5241;47.830;12.972;2022-08-19T11:09:08;4.80;;;4.47;;
10389;SDS011;5241;47.830;12.972;2022-08-19T11:11:36;5.17;;;4.70;;
10389;SDS011;5241;47.830;12.972;2022-08-19T11:14:05;4.93;;;4.50;;
10389;SDS011;5241;47.830;12.972;2022-08-19T11:16:33;5.37;;;4.97;;
10389;SDS011;5241;47.830;12.972;2022-08-19T11:18:59;4.67;;;4.33;;
10389;SDS011;5241;47.830;12.972;2022-08-19T11:21:26;5.53;;;5.13;;
10389;SDS011;5241;47.830;12.972;2022-08-19T11:23:57;5.43;;;5.03;;
10389;SDS011;5241;47.830;12.972;2022-08-19T11:26:24;5.10;;;4.60;;
10389;SDS011;5241;47.830;12.972;2022-08-19T11:28:50;5.03;;;4.63;;
10389;SDS011;5241;47.830;12.972;2022-08-19T11:31:20;5.60;;;4.43;;
10389;SDS011;5241;47.830;12.972;2022-08-19T11:33:47;5.20;;;4.80;;
10389;SDS011;5241;47.830;12.972;2022-08-19T11:36:15;4.80;;;4.40;;
10389;SDS011;5241;47.830;12.972;2022-08-19T11:38:41;5.20;;;4.80;;
10389;SDS011;5241;47.830;12.972;2022-08-19T11:41:08;5.70;;;4.93;;
10389;SDS011;5241;47.830;12.972;2022-08-19T11:43:34;4.97;;;4.57;;
10389;SDS011;5241;47.830;12.972;2022-08-19T11:46:04;5.20;;;4.77;;
10389;SDS011;5241;47.830;12.972;2022-08-19T11:48:32;5.07;;;4.67;;
10389;SDS011;5241;47.830;12.972;2022-08-19T11:50:57;4.97;;;4.57;;
10389;SDS011;5241;47.830;12.972;2022-08-19T11:53:23;4.80;;;4.40;;
10389;SDS011;5241;47.830;12.972;2022-08-19T11:55:49;5.13;;;4.73;;
10389;SDS011;5241;47.830;12.972;2022-08-19T11:58:21;6.37;;;4.67;;
10389;SDS011;5241;47.830;12.972;2022-08-19T12:00:47;6.03;;;4.37;;
10389;SDS011;5241;47.830;12.972;2022-08-19T12:03:13;4.93;;;4.53;;
10389;SDS011;5241;47.830;12.972;2022-08-19T12:05:39;5.05;;;4.60;;
10389;SDS011;5241;47.830;12.972;2022-08-19T12:08:06;5.15;;;4.75;;
10389;SDS011;5241;47.830;12.972;2022-08-19T12:10:32;5.40;;;5.00;;
10389;SDS011;5241;47.830;12.972;2022-08-19T12:12:59;4.97;;;4.57;;
10389;SDS011;5241;47.830;12.972;2022-08-19T12:15:25;4.80;;;4.50;;
10389;SDS011;5241;47.830;12.972;2022-08-19T12:17:52;5.63;;;5.07;;
10389;SDS011;5241;47.830;12.972;2022-08-19T12:20:21;5.67;;;5.17;;
10389;SDS011;5241;47.830;12.972;2022-08-19T12:22:47;5.63;;;5.13;;
10389;SDS011;5241;47.830;12.972;2022-08-19T12:25:13;5.03;;;4.53;;
10389;SDS011;5241;47.830;12.972;2022-08-19T12:27:39;4.83;;;4.53;;
10389;SDS011;5241;47.830;12.972;2022-08-19T12:30:05;5.17;;;4.77;;
10389;SDS011;5241;47.830;12.972;2022-08-19T12:32:33;4.70;;;4.30;;
10389;SDS011;5241;47.830;12.972;2022-08-19T12:34:59;5.40;;;4.97;;
10389;SDS011;5241;47.830;12.972;2022-08-19T12:37:25;4.83;;;4.43;;
10389;SDS011;5241;47.830;12.972;2022-08-19T12:39:50;5.17;;;4.67;;
10389;SDS011;5241;47.830;12.972;2022-08-19T12:42:16;5.10;;;4.10;;
10389;SDS011;5241;47.830;12.972;2022-08-19T12:44:43;5.57;;;5.00;;
10389;SDS011;5241;47.830;12.972;2022-08-19T12:47:10;4.97;;;4.07;;
10389;SDS011;5241;47.830;12.972;2022-08-19T12:49:38;4.43;;;4.03;;
10389;SDS011;5241;47.830;12.972;2022-08-19T12:52:04;4.93;;;4.37;;
10389;SDS011;5241;47.830;12.972;2022-08-19T12:54:33;4.00;;;3.60;;
10389;SDS011;5241;47.830;12.972;2022-08-19T12:56:59;4.20;;;3.83;;
10389;SDS011;5241;47.830;12.972;2022-08-19T12:59:25;4.67;;;4.10;;
10389;SDS011;5241;47.830;12.972;2022-08-19T13:01:51;4.80;;;4.30;;
10389;SDS011;5241;47.830;12.972;2022-08-19T13:04:17;5.73;;;5.23;;
10389;SDS011;5241;47.830;12.972;2022-08-19T13:06:43;5.07;;;4.67;;
10389;SDS011;5241;47.830;12.972;2022-08-19T13:09:08;4.37;;;4.07;;
10389;SDS011;5241;47.830;12.972;2022-08-19T13:11:34;4.57;;;4.13;;
10389;SDS011;5241;47.830;12.972;2022-08-19T13:14:01;5.17;;;4.67;;
10389;SDS011;5241;47.830;12.972;2022-08-19T13:16:28;4.90;;;4.40;;
10389;SDS011;5241;47.830;12.972;2022-08-19T13:18:54;4.47;;;4.07;;
10389;SDS011;5241;47.830;12.972;2022-08-19T13:21:22;4.97;;;4.37;;
10389;SDS011;5241;47.830;12.972;2022-08-19T13:23:49;4.17;;;3.60;;
10389;SDS011;5241;47.830;12.972;2022-08-19T13:26:16;4.50;;;4.10;;
10389;SDS011;5241;47.830;12.972;2022-08-19T13:28:43;6.20;;;4.47;;
10389;SDS011;5241;47.830;12.972;2022-08-19T13:31:29;4.40;;;4.00;;
10389;SDS011;5241;47.830;12.972;2022-08-19T13:34:15;6.27;;;5.67;;
10389;SDS011;5241;47.830;12.972;2022-08-19T13:36:42;6.67;;;5.27;;
10389;SDS011;5241;47.830;12.972;2022-08-19T13:39:08;4.83;;;4.40;;
10389;SDS011;5241;47.830;12.972;2022-08-19T13:41:35;5.10;;;4.60;;
10389;SDS011;5241;47.830;12.972;2022-08-19T13:44:02;4.93;;;4.40;;
10389;SDS011;5241;47.830;12.972;2022-08-19T13:46:28;5.20;;;4.70;;
10389;SDS011;5241;47.830;12.972;2022-08-19T13:48:55;5.53;;;4.50;;
10389;SDS011;5241;47.830;12.972;2022-08-19T13:51:21;5.37;;;4.73;;
10389;SDS011;5241;47.830;12.972;2022-08-19T13:53:47;4.77;;;4.37;;
10389;SDS011;5241;47.830;12.972;2022-08-19T13:56:13;5.27;;;4.77;;
10389;SDS011;5241;47.830;12.972;2022-08-19T13:58:41;5.27;;;4.87;;
10389;SDS011;5241;47.830;12.972;2022-08-19T14:01:07;5.30;;;4.80;;
10389;SDS011;5241;47.830;12.972;2022-08-19T14:03:33;5.47;;;4.83;;
10389;SDS011;5241;47.830;12.972;2022-08-19T14:05:59;5.53;;;5.03;;
10389;SDS011;5241;47.830;12.972;2022-08-19T14:08:26;5.40;;;5.00;;
10389;SDS011;5241;47.830;12.972;2022-08-19T14:10:53;5.53;;;5.03;;
10389;SDS011;5241;47.830;12.972;2022-08-19T14:13:20;6.13;;;5.53;;
10389;SDS011;5241;47.830;12.972;2022-08-19T14:15:47;5.83;;;5.23;;
10389;SDS011;5241;47.830;12.972;2022-08-19T14:18:13;7.30;;;5.33;;
10389;SDS011;5241;47.830;12.972;2022-08-19T14:20:40;5.57;;;5.07;;
10389;SDS011;5241;47.830;12.972;2022-08-19T14:23:06;4.97;;;4.57;;
10389;SDS011;5241;47.830;12.972;2022-08-19T14:25:32;5.00;;;4.60;;
10389;SDS011;5241;47.830;12.972;2022-08-19T14:27:59;4.90;;;4.50;;
10389;SDS011;5241;47.830;12.972;2022-08-19T14:30:29;5.07;;;4.67;;
10389;SDS011;5241;47.830;12.972;2022-08-19T14:32:57;5.43;;;4.93;;
10389;SDS011;5241;47.830;12.972;2022-08-19T14:35:25;5.97;;;5.40;;
10389;SDS011;5241;47.830;12.972;2022-08-19T14:37:51;6.53;;;5.47;;
10389;SDS011;5241;47.830;12.972;2022-08-19T14:40:21;5.40;;;4.90;;
10389;SDS011;5241;47.830;12.972;2022-08-19T14:42:54;4.60;;;4.30;;
10389;SDS011;5241;47.830;12.972;2022-08-19T14:45:24;4.87;;;3.83;;
10389;SDS011;5241;47.830;12.972;2022-08-19T14:47:51;4.33;;;3.93;;
10389;SDS011;5241;47.830;12.972;2022-08-19T14:50:17;3.50;;;3.30;;
10389;SDS011;5241;47.830;12.972;2022-08-19T14:52:43;4.10;;;3.70;;
10389;SDS011;5241;47.830;12.972;2022-08-19T14:55:10;5.23;;;3.63;;
10389;SDS011;5241;47.830;12.972;2022-08-19T14:57:35;4.10;;;3.70;;